createdAt,value
2023-05-05T00:02:11.348Z,2.00
2023-05-05T00:04:38.886Z,2.13
2023-05-05T00:07:06.316Z,2.00
2023-05-05T00:09:33.799Z,1.52
2023-05-05T00:12:01.343Z,1.88
2023-05-05T00:14:28.786Z,1.58
2023-05-05T00:16:56.339Z,1.90
2023-05-05T00:19:25.231Z,1.80
2023-05-05T00:21:53.028Z,2.10
2023-05-05T00:24:20.497Z,1.80
2023-05-05T00:26:47.938Z,1.77
2023-05-05T00:29:15.558Z,1.70
2023-05-05T00:31:43.080Z,1.95
2023-05-05T00:34:11.015Z,2.20
2023-05-05T00:36:39.877Z,1.83
2023-05-05T00:39:07.431Z,1.83
2023-05-05T00:41:34.921Z,2.17
2023-05-05T00:44:02.448Z,2.08
2023-05-05T00:46:32.696Z,2.05
2023-05-05T00:49:01.259Z,2.05
2023-05-05T00:51:29.571Z,2.00
2023-05-05T00:53:58.410Z,2.20
2023-05-05T00:58:54.992Z,1.75
2023-05-05T01:01:22.943Z,2.55
2023-05-05T01:03:50.492Z,2.13
2023-05-05T01:06:38.335Z,2.28
2023-05-05T01:09:17.548Z,1.90
2023-05-05T01:11:52.384Z,2.10
2023-05-05T01:14:23.904Z,1.85
2023-05-05T01:16:58.220Z,1.92
2023-05-05T01:19:59.251Z,1.42
2023-05-05T01:22:33.942Z,2.05
2023-05-05T01:25:40.236Z,1.70
2023-05-05T01:28:18.180Z,2.15
2023-05-05T01:31:01.511Z,2.08
2023-05-05T01:33:36.844Z,1.88
2023-05-05T01:36:08.507Z,1.90
2023-05-05T01:38:41.715Z,1.90
2023-05-05T01:41:13.955Z,2.10
2023-05-05T01:43:45.695Z,2.20
2023-05-05T01:46:14.546Z,1.88
2023-05-05T01:48:45.082Z,2.05
2023-05-05T01:51:13.593Z,1.67
2023-05-05T01:56:10.443Z,1.92
2023-05-05T01:58:38.881Z,1.70
2023-05-05T02:01:07.161Z,1.77
2023-05-05T02:03:37.121Z,1.98
2023-05-05T02:06:08.304Z,2.10
2023-05-05T02:08:37.827Z,1.80
2023-05-05T02:11:06.202Z,1.75
2023-05-05T02:13:34.041Z,2.20
2023-05-05T02:16:03.862Z,2.08
2023-05-05T02:18:35.688Z,2.10
2023-05-05T02:21:03.633Z,1.85
2023-05-05T02:23:32.581Z,1.70
2023-05-05T02:26:05.733Z,1.85
2023-05-05T02:28:40.827Z,1.85
2023-05-05T02:31:10.482Z,1.77
2023-05-05T02:33:39.319Z,1.88
2023-05-05T02:36:12.635Z,1.83
2023-05-05T02:38:44.385Z,2.00
2023-05-05T02:41:17.670Z,2.13
2023-05-05T02:43:47.097Z,1.95
2023-05-05T02:46:14.565Z,1.90
2023-05-05T02:48:42.286Z,1.95
2023-05-05T02:51:09.773Z,1.70
2023-05-05T02:53:37.493Z,1.80
2023-05-05T02:56:17.205Z,1.92
2023-05-05T02:58:52.759Z,1.75
2023-05-05T03:01:30.295Z,1.75
2023-05-05T03:04:05.990Z,1.63
2023-05-05T03:06:40.079Z,1.90
2023-05-05T03:09:11.023Z,1.80
2023-05-05T03:11:44.940Z,1.70
2023-05-05T03:14:16.813Z,2.28
2023-05-05T03:16:45.270Z,1.80
2023-05-05T03:21:42.633Z,1.70
2023-05-05T03:24:15.237Z,1.65
2023-05-05T03:26:45.908Z,1.20
2023-05-05T03:29:13.939Z,1.58
2023-05-05T03:31:41.792Z,1.60
2023-05-05T03:34:09.698Z,1.70
2023-05-05T03:36:37.393Z,1.75
2023-05-05T03:39:05.004Z,1.73
2023-05-05T03:41:32.465Z,1.63
2023-05-05T03:44:01.349Z,1.65
2023-05-05T03:46:28.880Z,1.92
2023-05-05T03:48:56.957Z,1.80
2023-05-05T03:51:25.209Z,2.10
2023-05-05T03:53:52.677Z,1.85
2023-05-05T03:56:20.289Z,1.88
2023-05-05T03:58:47.826Z,2.10
2023-05-05T04:01:16.618Z,1.83
2023-05-05T04:03:44.164Z,2.20
2023-05-05T04:06:11.636Z,1.80
2023-05-05T04:08:39.074Z,2.22
2023-05-05T04:11:06.650Z,1.85
2023-05-05T04:13:34.092Z,2.33
2023-05-05T04:16:01.674Z,2.10
2023-05-05T04:18:31.154Z,2.22
2023-05-05T04:20:58.609Z,2.10
2023-05-05T04:23:26.163Z,2.08
2023-05-05T04:25:53.631Z,2.00
2023-05-05T04:28:21.972Z,2.13
2023-05-05T04:33:16.932Z,1.90
2023-05-05T04:35:45.757Z,1.80
2023-05-05T04:38:13.192Z,1.65
2023-05-05T04:40:41.173Z,1.45
2023-05-05T04:43:08.617Z,1.70
2023-05-05T04:45:36.078Z,1.90
2023-05-05T04:48:05.044Z,1.85
2023-05-05T04:50:32.653Z,2.10
2023-05-05T04:53:01.497Z,1.80
2023-05-05T04:55:29.330Z,1.63
2023-05-05T04:57:56.801Z,2.03
2023-05-05T05:00:24.389Z,2.05
2023-05-05T05:02:52.422Z,1.80
2023-05-05T05:05:20.063Z,1.85
2023-05-05T05:07:47.520Z,1.88
2023-05-05T05:10:17.085Z,2.08
2023-05-05T05:12:44.549Z,1.95
2023-05-05T05:15:14.239Z,2.22
2023-05-05T05:17:41.726Z,2.20
2023-05-05T05:20:10.092Z,2.38
2023-05-05T05:22:38.837Z,2.15
2023-05-05T05:27:35.332Z,1.70
2023-05-05T05:30:02.975Z,1.65
2023-05-05T05:32:30.640Z,1.92
2023-05-05T05:34:58.140Z,1.92
2023-05-05T05:37:29.129Z,1.90
2023-05-05T05:39:56.781Z,1.55
2023-05-05T05:42:24.212Z,1.80
2023-05-05T05:44:53.114Z,1.85
2023-05-05T05:47:20.610Z,2.45
2023-05-05T05:49:48.032Z,1.75
2023-05-05T05:52:15.482Z,1.63
2023-05-05T05:54:42.945Z,1.70
2023-05-05T05:57:10.471Z,2.00
2023-05-05T05:59:37.964Z,1.98
2023-05-05T06:02:07.112Z,1.40
2023-05-05T06:04:34.661Z,2.10
2023-05-05T06:07:02.210Z,1.45
2023-05-05T06:09:29.690Z,1.63
2023-05-05T06:11:57.142Z,1.90
2023-05-05T06:14:24.642Z,2.08
2023-05-05T06:16:52.686Z,1.65
2023-05-05T06:19:21.532Z,2.00
2023-05-05T06:21:49.067Z,1.65
2023-05-05T06:24:16.671Z,1.80
2023-05-05T06:26:44.157Z,1.60
2023-05-05T06:29:12.435Z,1.73
2023-05-05T06:34:07.519Z,2.55
2023-05-05T06:36:36.451Z,1.83
2023-05-05T06:39:03.988Z,2.00
2023-05-05T06:41:31.717Z,2.33
2023-05-05T06:43:59.166Z,2.63
2023-05-05T06:46:27.150Z,2.03
2023-05-05T06:48:54.685Z,2.10
2023-05-05T06:51:22.653Z,1.88
2023-05-05T06:53:51.496Z,2.10
2023-05-05T06:56:19.302Z,2.25
2023-05-05T06:58:46.799Z,2.53
2023-05-05T07:01:14.526Z,2.47
2023-05-05T07:03:42.056Z,2.30
2023-05-05T07:06:09.655Z,2.35
2023-05-05T07:08:37.175Z,2.70
2023-05-05T07:11:06.031Z,2.28
2023-05-05T07:13:33.517Z,2.70
2023-05-05T07:16:01.185Z,2.63
2023-05-05T07:18:28.689Z,2.08
2023-05-05T07:20:56.110Z,1.92
2023-05-05T07:23:23.560Z,2.97
2023-05-05T07:25:51.133Z,2.53
2023-05-05T07:28:20.065Z,2.55
2023-05-05T07:30:47.529Z,2.35
2023-05-05T07:33:15.738Z,2.60
2023-05-05T07:35:43.183Z,3.10
2023-05-05T07:38:11.081Z,2.75
2023-05-05T07:40:38.603Z,3.17
2023-05-05T07:43:06.124Z,2.60
2023-05-05T07:45:34.999Z,2.72
2023-05-05T07:48:02.613Z,2.33
2023-05-05T07:50:30.240Z,2.92
2023-05-05T07:53:10.671Z,3.20
2023-05-05T07:55:41.766Z,3.80
2023-05-05T07:58:10.709Z,3.30
2023-05-05T08:00:39.652Z,3.53
2023-05-05T08:03:09.725Z,3.42
2023-05-05T08:05:39.069Z,3.17
2023-05-05T08:08:06.932Z,3.92
2023-05-05T08:10:34.377Z,2.83
2023-05-05T08:13:01.992Z,3.58
2023-05-05T08:15:29.595Z,3.58
2023-05-05T08:17:58.437Z,4.03
2023-05-05T08:20:29.413Z,3.20
2023-05-05T08:22:56.952Z,4.03
2023-05-05T08:25:26.747Z,4.28
2023-05-05T08:27:54.551Z,3.92
2023-05-05T08:30:22.269Z,3.38
2023-05-05T08:32:49.745Z,3.90
2023-05-05T08:35:18.803Z,3.42
2023-05-05T08:37:46.341Z,4.18
2023-05-05T08:40:14.970Z,3.78
2023-05-05T08:42:42.631Z,4.70
2023-05-05T08:45:11.501Z,3.90
2023-05-05T08:47:40.293Z,5.13
2023-05-05T08:50:11.156Z,4.10
2023-05-05T08:52:41.879Z,4.43
2023-05-05T08:55:16.210Z,4.05
2023-05-05T08:57:50.351Z,4.63
2023-05-05T09:00:19.591Z,5.47
2023-05-05T09:02:47.780Z,4.05
2023-05-05T09:05:15.761Z,4.38
2023-05-05T09:07:44.810Z,4.05
2023-05-05T09:10:13.114Z,4.43
2023-05-05T09:12:41.388Z,5.18
2023-05-05T09:15:10.129Z,4.55
2023-05-05T09:17:38.051Z,4.32
2023-05-05T09:20:07.687Z,4.00
2023-05-05T09:22:37.047Z,4.50
2023-05-05T09:25:07.565Z,4.20
2023-05-05T09:27:40.683Z,4.45
2023-05-05T09:30:09.945Z,5.32
2023-05-05T09:32:55.809Z,4.65
2023-05-05T09:35:24.349Z,4.40
2023-05-05T09:37:52.013Z,4.35
2023-05-05T09:40:22.131Z,4.32
2023-05-05T09:42:49.789Z,4.45
2023-05-05T09:45:27.984Z,4.35
2023-05-05T09:47:59.602Z,4.80
2023-05-05T09:50:30.133Z,4.10
2023-05-05T09:52:58.488Z,5.00
2023-05-05T09:57:55.061Z,4.80
2023-05-05T10:00:22.934Z,5.53
2023-05-05T10:02:50.446Z,4.63
2023-05-05T10:05:19.397Z,5.53
2023-05-05T10:07:48.764Z,5.50
2023-05-05T10:10:18.387Z,5.43
2023-05-05T10:12:49.313Z,5.00
2023-05-05T10:15:17.473Z,4.38
2023-05-05T10:20:34.176Z,3.97
2023-05-05T10:23:06.515Z,4.28
2023-05-05T10:25:41.224Z,3.65
2023-05-05T10:28:16.819Z,4.53
2023-05-05T10:30:46.959Z,4.75
2023-05-05T10:33:31.557Z,4.63
2023-05-05T10:36:03.104Z,3.95
2023-05-05T10:38:32.344Z,4.45
2023-05-05T10:41:01.157Z,4.18
2023-05-05T10:43:31.893Z,3.58
2023-05-05T10:46:00.504Z,4.68
2023-05-05T10:48:35.491Z,4.38
2023-05-05T10:51:27.333Z,4.72
2023-05-05T10:54:11.370Z,4.28
2023-05-05T10:56:41.738Z,3.15
2023-05-05T10:59:44.383Z,3.40
2023-05-05T11:02:22.792Z,3.22
2023-05-05T11:05:08.162Z,2.80
2023-05-05T11:07:35.853Z,3.50
2023-05-05T11:10:05.048Z,2.95
2023-05-05T11:12:35.503Z,2.95
2023-05-05T11:15:38.279Z,3.25
2023-05-05T11:18:08.229Z,3.17
2023-05-05T11:21:03.491Z,3.15
2023-05-05T11:23:31.623Z,2.88
2023-05-05T11:25:59.196Z,2.85
2023-05-05T11:28:29.921Z,3.08
2023-05-05T11:31:20.894Z,3.28
2023-05-05T11:33:48.913Z,3.08
2023-05-05T11:36:17.783Z,3.58
2023-05-05T11:39:04.818Z,3.25
2023-05-05T11:41:46.262Z,3.58
2023-05-05T11:44:15.139Z,3.47
2023-05-05T11:47:22.739Z,3.20
2023-05-05T11:49:50.727Z,2.90
2023-05-05T11:52:18.327Z,2.70
2023-05-05T11:54:48.529Z,2.80
2023-05-05T11:57:19.266Z,3.17
2023-05-05T11:59:52.117Z,2.53
2023-05-05T12:02:22.342Z,2.88
2023-05-05T12:04:50.480Z,2.50
2023-05-05T12:07:19.131Z,2.72
2023-05-05T12:09:48.164Z,2.40
2023-05-05T12:12:16.368Z,2.70
2023-05-05T12:14:51.970Z,2.90
2023-05-05T12:17:22.428Z,3.10
2023-05-05T12:19:53.435Z,2.50
2023-05-05T12:22:23.282Z,2.72
2023-05-05T12:24:55.758Z,3.10
2023-05-05T12:27:23.959Z,3.10
2023-05-05T12:29:51.622Z,3.00
2023-05-05T12:32:22.108Z,3.30
2023-05-05T12:34:53.727Z,2.88
2023-05-05T12:37:22.075Z,2.15
2023-05-05T12:39:49.780Z,2.25
2023-05-05T12:42:17.954Z,2.60
2023-05-05T12:44:46.629Z,2.90
2023-05-05T12:47:14.745Z,2.70
2023-05-05T12:49:51.484Z,2.33
2023-05-05T12:52:20.709Z,2.22
2023-05-05T12:54:56.060Z,2.10
2023-05-05T12:57:24.252Z,2.35
2023-05-05T12:59:52.726Z,2.70
2023-05-05T13:02:21.465Z,2.10
2023-05-05T13:04:52.059Z,2.50
2023-05-05T13:07:20.989Z,1.95
2023-05-05T13:09:49.766Z,2.00
2023-05-05T13:12:19.314Z,1.60
2023-05-05T13:14:47.484Z,1.50
2023-05-05T13:17:15.400Z,1.80
2023-05-05T13:19:45.906Z,1.38
2023-05-05T13:22:15.115Z,1.70
2023-05-05T13:24:51.618Z,1.70
2023-05-05T13:27:20.032Z,1.65
2023-05-05T13:29:47.916Z,1.65
2023-05-05T13:32:15.485Z,1.70
2023-05-05T13:34:43.976Z,1.65
2023-05-05T13:37:11.528Z,1.88
2023-05-05T13:39:40.566Z,2.03
2023-05-05T13:42:08.026Z,2.38
2023-05-05T13:44:37.865Z,1.88
2023-05-05T13:47:05.669Z,2.20
2023-05-05T13:49:33.229Z,2.20
2023-05-05T13:52:02.751Z,1.80
2023-05-05T13:54:30.585Z,1.50
2023-05-05T13:56:59.951Z,1.45
2023-05-05T13:59:27.549Z,1.20
2023-05-05T14:01:55.096Z,1.25
2023-05-05T14:04:22.721Z,1.33
2023-05-05T14:06:50.388Z,1.30
2023-05-05T14:09:17.849Z,1.67
2023-05-05T14:11:47.429Z,1.40
2023-05-05T14:14:16.313Z,1.60
2023-05-05T14:16:43.808Z,1.45
2023-05-05T14:19:11.263Z,1.40
2023-05-05T14:21:38.775Z,1.70
2023-05-05T14:24:06.855Z,1.45
2023-05-05T14:29:01.666Z,1.88
2023-05-05T14:31:30.533Z,1.63
2023-05-05T14:33:58.016Z,2.95
2023-05-05T14:36:26.731Z,2.20
2023-05-05T14:38:54.283Z,2.17
2023-05-05T14:41:21.835Z,1.67
2023-05-05T14:43:49.335Z,1.95
2023-05-05T14:46:16.960Z,2.08
2023-05-05T14:48:47.153Z,5.88
2023-05-05T14:51:15.126Z,7.35
2023-05-05T14:53:43.289Z,5.80
2023-05-05T14:58:38.350Z,2.50
2023-05-05T15:01:05.875Z,2.30
2023-05-05T15:03:33.573Z,2.30
2023-05-05T15:06:02.466Z,2.50
2023-05-05T15:08:29.973Z,1.70
2023-05-05T15:10:57.471Z,1.77
2023-05-05T15:13:25.027Z,1.40
2023-05-05T15:15:52.566Z,1.35
2023-05-05T15:18:20.076Z,2.13
2023-05-05T15:20:47.524Z,1.20
2023-05-05T15:23:16.470Z,1.52
2023-05-05T15:25:44.041Z,1.00
2023-05-05T15:28:11.513Z,1.10
2023-05-05T15:30:38.993Z,1.20
2023-05-05T15:33:06.565Z,1.33
2023-05-05T15:35:34.058Z,1.10
2023-05-05T15:38:04.883Z,1.10
2023-05-05T15:40:33.789Z,1.27
2023-05-05T15:43:01.357Z,1.17
2023-05-05T15:45:28.822Z,1.42
2023-05-05T15:47:56.353Z,1.50
2023-05-05T15:50:23.905Z,1.70
2023-05-05T15:52:51.526Z,1.30
2023-05-05T15:55:19.013Z,1.85
2023-05-05T15:57:47.839Z,1.13
2023-05-05T16:00:16.080Z,1.38
2023-05-05T16:02:43.601Z,1.50
2023-05-05T16:05:12.216Z,1.85
2023-05-05T16:07:39.908Z,2.20
2023-05-05T16:10:09.811Z,2.28
2023-05-05T16:12:38.318Z,2.28
2023-05-05T16:15:10.520Z,2.22
2023-05-05T16:17:38.618Z,2.13
2023-05-05T16:20:07.086Z,1.73
2023-05-05T16:22:34.560Z,1.25
2023-05-05T16:25:02.060Z,1.20
2023-05-05T16:27:29.565Z,1.48
2023-05-05T16:29:59.527Z,1.42
2023-05-05T16:32:28.675Z,1.50
2023-05-05T16:34:56.181Z,1.83
2023-05-05T16:37:23.872Z,1.85
2023-05-05T16:39:51.415Z,1.50
2023-05-05T16:42:19.149Z,1.77
2023-05-05T16:44:46.664Z,1.42
2023-05-05T16:47:14.201Z,2.03
2023-05-05T16:49:43.028Z,2.40
2023-05-05T16:52:13.223Z,2.30
2023-05-05T16:54:41.504Z,1.95
2023-05-05T16:57:09.044Z,1.95
2023-05-05T16:59:36.938Z,2.40
2023-05-05T17:02:04.438Z,2.60
2023-05-05T17:04:34.728Z,2.33
2023-05-05T17:07:03.607Z,2.17
2023-05-05T17:09:31.082Z,2.53
2023-05-05T17:11:58.558Z,2.20
2023-05-05T17:14:27.194Z,2.08
2023-05-05T17:16:55.243Z,1.88
2023-05-05T17:19:22.758Z,1.67
2023-05-05T17:21:50.238Z,2.28
2023-05-05T17:24:19.017Z,2.20
2023-05-05T17:26:46.702Z,2.10
2023-05-05T17:29:15.160Z,4.30
2023-05-05T17:31:42.715Z,5.38
2023-05-05T17:34:13.197Z,3.75
2023-05-05T17:36:45.819Z,3.20
2023-05-05T17:39:13.612Z,2.92
2023-05-05T17:41:42.778Z,2.83
2023-05-05T17:44:10.351Z,3.03
2023-05-05T17:46:38.169Z,3.03
2023-05-05T17:49:05.729Z,2.15
2023-05-05T17:51:33.262Z,1.67
2023-05-05T17:54:00.698Z,2.20
2023-05-05T17:56:28.173Z,2.17
2023-05-05T17:58:56.999Z,2.20
2023-05-05T18:01:25.665Z,2.35
2023-05-05T18:04:01.388Z,2.28
2023-05-05T18:06:29.278Z,2.40
2023-05-05T18:08:57.302Z,2.17
2023-05-05T18:11:27.511Z,2.17
2023-05-05T18:13:57.010Z,2.05
2023-05-05T18:16:24.551Z,2.20
2023-05-05T18:18:52.082Z,2.30
2023-05-05T18:21:19.557Z,2.60
2023-05-05T18:23:47.044Z,3.95
2023-05-05T18:26:14.529Z,3.75
2023-05-05T18:28:42.021Z,2.45
2023-05-05T18:31:10.877Z,2.20
2023-05-05T18:33:38.444Z,1.90
2023-05-05T18:36:06.488Z,2.13
2023-05-05T18:38:33.940Z,1.83
2023-05-05T18:41:01.560Z,2.33
2023-05-05T18:43:29.018Z,2.67
2023-05-05T18:45:56.527Z,2.10
2023-05-05T18:48:26.103Z,2.25
2023-05-05T18:50:53.569Z,2.30
2023-05-05T18:53:21.051Z,2.28
2023-05-05T18:55:49.221Z,2.60
2023-05-05T18:58:16.934Z,2.88
2023-05-05T19:00:44.764Z,2.58
2023-05-05T19:03:12.487Z,3.20
2023-05-05T19:05:41.963Z,3.35
2023-05-05T19:08:09.491Z,4.47
2023-05-05T19:10:37.388Z,3.88
2023-05-05T19:13:04.986Z,3.40
2023-05-05T19:15:32.665Z,2.15
2023-05-05T19:18:00.585Z,1.63
2023-05-05T19:20:30.730Z,2.20
2023-05-05T19:23:03.722Z,1.40
2023-05-05T19:25:31.254Z,2.30
2023-05-05T19:27:59.310Z,1.88
2023-05-05T19:30:26.882Z,2.33
2023-05-05T19:32:54.430Z,1.90
2023-05-05T19:35:22.289Z,2.50
2023-05-05T19:37:49.721Z,2.67
2023-05-05T19:40:18.537Z,2.80
2023-05-05T19:42:46.003Z,2.25
2023-05-05T19:45:13.471Z,2.78
2023-05-05T19:47:40.958Z,2.58
2023-05-05T19:50:09.133Z,2.83
2023-05-05T19:55:06.648Z,1.83
2023-05-05T20:00:04.883Z,2.17
2023-05-05T20:02:33.748Z,2.22
2023-05-05T20:05:03.055Z,2.50
2023-05-05T20:07:30.519Z,2.00
2023-05-05T20:09:58.708Z,2.08
2023-05-05T20:12:26.471Z,2.70
2023-05-05T20:14:55.401Z,1.98
2023-05-05T20:17:23.678Z,1.83
2023-05-05T20:22:18.816Z,1.90
2023-05-05T20:24:46.313Z,2.20
2023-05-05T20:27:13.751Z,1.85
2023-05-05T20:29:41.184Z,2.33
2023-05-05T20:32:10.015Z,2.00
2023-05-05T20:34:38.730Z,1.65
2023-05-05T20:37:06.223Z,1.90
2023-05-05T20:39:33.720Z,1.90
2023-05-05T20:42:01.157Z,1.95
2023-05-05T20:44:28.578Z,1.85
2023-05-05T20:46:56.105Z,1.52
2023-05-05T20:49:24.970Z,2.10
2023-05-05T20:51:52.460Z,1.70
2023-05-05T20:54:19.907Z,1.95
2023-05-05T20:56:47.338Z,2.05
2023-05-05T20:59:14.849Z,1.90
2023-05-05T21:01:42.415Z,1.42
2023-05-05T21:04:09.924Z,1.77
2023-05-05T21:06:38.756Z,1.70
2023-05-05T21:09:06.549Z,1.58
2023-05-05T21:11:34.116Z,1.70
2023-05-05T21:14:01.557Z,1.63
2023-05-05T21:16:29.007Z,1.77
2023-05-05T21:18:56.459Z,2.10
2023-05-05T21:21:24.567Z,2.13
2023-05-05T21:23:55.071Z,1.77
2023-05-05T21:26:22.585Z,1.95
2023-05-05T21:28:50.047Z,2.30
2023-05-05T21:31:21.912Z,1.80
2023-05-05T21:33:49.599Z,2.08
2023-05-05T21:36:18.867Z,2.00
2023-05-05T21:38:46.312Z,1.80
2023-05-05T21:41:15.087Z,1.60
2023-05-05T21:43:42.523Z,1.63
2023-05-05T21:46:10.032Z,2.13
2023-05-05T21:48:38.703Z,1.75
2023-05-05T21:51:06.618Z,2.15
2023-05-05T21:53:34.145Z,1.98
2023-05-05T21:56:02.278Z,1.75
2023-05-05T21:58:31.071Z,1.63
2023-05-05T22:00:58.500Z,1.67
2023-05-05T22:03:26.273Z,1.77
2023-05-05T22:05:53.845Z,2.25
2023-05-05T22:08:21.402Z,2.03
2023-05-05T22:10:48.836Z,2.08
2023-05-05T22:13:16.398Z,2.10
2023-05-05T22:15:47.252Z,2.03
2023-05-05T22:18:15.282Z,2.13
2023-05-05T22:20:43.192Z,2.10
2023-05-05T22:23:10.707Z,2.03
2023-05-05T22:25:38.435Z,2.50
2023-05-05T22:28:05.919Z,2.30
2023-05-05T22:30:33.549Z,1.95
2023-05-05T22:33:02.472Z,1.73
2023-05-05T22:35:30.062Z,1.95
2023-05-05T22:37:57.827Z,1.60
2023-05-05T22:40:25.343Z,1.98
2023-05-05T22:42:52.896Z,2.17
2023-05-05T22:45:20.769Z,2.17
2023-05-05T22:47:48.229Z,2.20
2023-05-05T22:50:17.149Z,1.92
2023-05-05T22:52:44.610Z,2.25
2023-05-05T22:55:13.902Z,2.30
2023-05-05T22:57:42.152Z,2.15
2023-05-05T23:00:10.953Z,2.08
2023-05-05T23:02:38.672Z,2.05
2023-05-05T23:05:07.182Z,1.85
2023-05-05T23:07:36.059Z,1.90
2023-05-05T23:10:03.613Z,2.28
2023-05-05T23:12:31.225Z,1.90
2023-05-05T23:14:58.681Z,2.08
2023-05-05T23:17:26.189Z,2.10
2023-05-05T23:19:53.683Z,2.35
2023-05-05T23:22:21.138Z,1.63
2023-05-05T23:24:49.906Z,2.40
2023-05-05T23:27:17.358Z,1.77
2023-05-05T23:29:44.815Z,1.80
2023-05-05T23:32:12.244Z,1.42
2023-05-05T23:34:39.719Z,1.77
2023-05-05T23:37:07.204Z,1.73
2023-05-05T23:39:34.935Z,1.90
2023-05-05T23:42:03.725Z,2.28
2023-05-05T23:44:31.176Z,1.75
2023-05-05T23:46:58.609Z,2.17
2023-05-05T23:49:26.364Z,2.20
2023-05-05T23:51:53.852Z,2.40
2023-05-05T23:54:21.335Z,1.90
2023-05-05T23:56:48.764Z,1.75
2023-05-05T23:59:17.767Z,1.80
